sensor_id;sensor_type;location;lat;lon;timestamp;P1;durP1;ratioP1;P2;durP2;ratioP2
9445;SDS011;4761;49.490;10.908;2022-07-30T00:01:56;2.53;;;2.33;;
9445;SDS011;4761;49.490;10.908;2022-07-30T00:04:22;2.70;;;2.50;;
9445;SDS011;4761;49.490;10.908;2022-07-30T00:06:48;2.63;;;2.42;;
9445;SDS011;4761;49.490;10.908;2022-07-30T00:09:14;2.92;;;2.65;;
9445;SDS011;4761;49.490;10.908;2022-07-30T00:11:39;2.70;;;2.50;;
9445;SDS011;4761;49.490;10.908;2022-07-30T00:14:05;2.90;;;2.60;;
9445;SDS011;4761;49.490;10.908;2022-07-30T00:16:31;2.63;;;2.40;;
9445;SDS011;4761;49.490;10.908;2022-07-30T00:18:56;2.60;;;2.40;;
9445;SDS011;4761;49.490;10.908;2022-07-30T00:21:22;3.08;;;2.78;;
9445;SDS011;4761;49.490;10.908;2022-07-30T00:23:47;2.83;;;2.63;;
9445;SDS011;4761;49.490;10.908;2022-07-30T00:26:13;3.30;;;2.78;;
9445;SDS011;4761;49.490;10.908;2022-07-30T00:28:38;4.47;;;2.65;;
9445;SDS011;4761;49.490;10.908;2022-07-30T00:31:04;3.25;;;2.55;;
9445;SDS011;4761;49.490;10.908;2022-07-30T00:33:29;2.50;;;2.28;;
9445;SDS011;4761;49.490;10.908;2022-07-30T00:35:55;4.53;;;2.72;;
9445;SDS011;4761;49.490;10.908;2022-07-30T00:38:21;3.70;;;2.50;;
9445;SDS011;4761;49.490;10.908;2022-07-30T00:40:46;2.97;;;2.45;;
9445;SDS011;4761;49.490;10.908;2022-07-30T00:43:13;3.33;;;2.63;;
9445;SDS011;4761;49.490;10.908;2022-07-30T00:45:40;2.60;;;2.38;;
9445;SDS011;4761;49.490;10.908;2022-07-30T00:48:06;2.97;;;2.67;;
9445;SDS011;4761;49.490;10.908;2022-07-30T00:50:31;2.78;;;2.47;;
9445;SDS011;4761;49.490;10.908;2022-07-30T00:52:57;2.78;;;2.50;;
9445;SDS011;4761;49.490;10.908;2022-07-30T00:55:23;6.45;;;2.50;;
9445;SDS011;4761;49.490;10.908;2022-07-30T00:57:49;2.47;;;2.28;;
9445;SDS011;4761;49.490;10.908;2022-07-30T01:00:15;3.28;;;2.35;;
9445;SDS011;4761;49.490;10.908;2022-07-30T01:02:40;3.15;;;2.25;;
9445;SDS011;4761;49.490;10.908;2022-07-30T01:05:06;3.15;;;2.70;;
9445;SDS011;4761;49.490;10.908;2022-07-30T01:07:33;2.83;;;2.55;;
9445;SDS011;4761;49.490;10.908;2022-07-30T01:09:58;2.65;;;2.38;;
9445;SDS011;4761;49.490;10.908;2022-07-30T01:12:24;3.17;;;2.70;;
9445;SDS011;4761;49.490;10.908;2022-07-30T01:14:51;2.25;;;2.05;;
9445;SDS011;4761;49.490;10.908;2022-07-30T01:17:17;2.28;;;1.98;;
9445;SDS011;4761;49.490;10.908;2022-07-30T01:19:42;2.30;;;2.10;;
9445;SDS011;4761;49.490;10.908;2022-07-30T01:25:00;2.88;;;2.35;;
9445;SDS011;4761;49.490;10.908;2022-07-30T01:27:32;2.33;;;2.13;;
9445;SDS011;4761;49.490;10.908;2022-07-30T01:30:11;2.90;;;2.60;;
9445;SDS011;4761;49.490;10.908;2022-07-30T01:32:41;2.45;;;2.25;;
9445;SDS011;4761;49.490;10.908;2022-07-30T01:35:08;2.50;;;2.30;;
9445;SDS011;4761;49.490;10.908;2022-07-30T01:37:34;2.50;;;2.30;;
9445;SDS011;4761;49.490;10.908;2022-07-30T01:40:02;2.42;;;2.20;;
9445;SDS011;4761;49.490;10.908;2022-07-30T01:42:29;2.63;;;2.40;;
9445;SDS011;4761;49.490;10.908;2022-07-30T01:44:56;2.28;;;2.10;;
9445;SDS011;4761;49.490;10.908;2022-07-30T01:47:23;2.58;;;2.38;;
9445;SDS011;4761;49.490;10.908;2022-07-30T01:49:49;2.50;;;2.30;;
9445;SDS011;4761;49.490;10.908;2022-07-30T01:52:17;2.70;;;2.50;;
9445;SDS011;4761;49.490;10.908;2022-07-30T01:54:45;2.50;;;2.30;;
9445;SDS011;4761;49.490;10.908;2022-07-30T01:57:15;2.60;;;2.40;;
9445;SDS011;4761;49.490;10.908;2022-07-30T01:59:42;2.67;;;2.35;;
9445;SDS011;4761;49.490;10.908;2022-07-30T02:02:13;3.17;;;2.45;;
9445;SDS011;4761;49.490;10.908;2022-07-30T02:04:38;2.65;;;2.45;;
9445;SDS011;4761;49.490;10.908;2022-07-30T02:07:23;3.10;;;2.80;;
9445;SDS011;4761;49.490;10.908;2022-07-30T02:10:00;2.80;;;2.60;;
9445;SDS011;4761;49.490;10.908;2022-07-30T02:12:31;2.60;;;2.40;;
9445;SDS011;4761;49.490;10.908;2022-07-30T02:17:42;2.92;;;2.72;;
9445;SDS011;4761;49.490;10.908;2022-07-30T02:20:13;3.13;;;2.50;;
9445;SDS011;4761;49.490;10.908;2022-07-30T02:22:43;3.10;;;2.80;;
9445;SDS011;4761;49.490;10.908;2022-07-30T02:25:12;3.55;;;2.65;;
9445;SDS011;4761;49.490;10.908;2022-07-30T02:27:41;2.65;;;2.35;;
9445;SDS011;4761;49.490;10.908;2022-07-30T02:30:09;2.85;;;2.55;;
9445;SDS011;4761;49.490;10.908;2022-07-30T02:32:36;2.50;;;2.30;;
9445;SDS011;4761;49.490;10.908;2022-07-30T02:35:22;3.13;;;2.83;;
9445;SDS011;4761;49.490;10.908;2022-07-30T02:37:50;2.58;;;2.38;;
9445;SDS011;4761;49.490;10.908;2022-07-30T02:40:19;2.72;;;2.33;;
9445;SDS011;4761;49.490;10.908;2022-07-30T02:42:48;2.97;;;2.47;;
9445;SDS011;4761;49.490;10.908;2022-07-30T02:45:16;2.53;;;2.33;;
9445;SDS011;4761;49.490;10.908;2022-07-30T02:47:44;3.15;;;2.47;;
9445;SDS011;4761;49.490;10.908;2022-07-30T02:50:12;2.45;;;2.25;;
9445;SDS011;4761;49.490;10.908;2022-07-30T02:52:40;3.10;;;2.80;;
9445;SDS011;4761;49.490;10.908;2022-07-30T02:55:07;3.33;;;2.42;;
9445;SDS011;4761;49.490;10.908;2022-07-30T02:57:35;2.53;;;2.33;;
9445;SDS011;4761;49.490;10.908;2022-07-30T03:00:03;2.60;;;2.30;;
9445;SDS011;4761;49.490;10.908;2022-07-30T03:02:30;2.50;;;2.30;;
9445;SDS011;4761;49.490;10.908;2022-07-30T03:04:58;2.15;;;2.05;;
9445;SDS011;4761;49.490;10.908;2022-07-30T03:07:26;2.60;;;2.40;;
9445;SDS011;4761;49.490;10.908;2022-07-30T03:09:54;2.80;;;2.60;;
9445;SDS011;4761;49.490;10.908;2022-07-30T03:12:20;3.92;;;2.10;;
9445;SDS011;4761;49.490;10.908;2022-07-30T03:14:46;2.70;;;2.50;;
9445;SDS011;4761;49.490;10.908;2022-07-30T03:17:12;2.78;;;2.58;;
9445;SDS011;4761;49.490;10.908;2022-07-30T03:19:40;3.72;;;2.72;;
9445;SDS011;4761;49.490;10.908;2022-07-30T03:22:06;2.78;;;2.30;;
9445;SDS011;4761;49.490;10.908;2022-07-30T03:24:33;2.40;;;2.20;;
9445;SDS011;4761;49.490;10.908;2022-07-30T03:27:00;2.30;;;2.10;;
9445;SDS011;4761;49.490;10.908;2022-07-30T03:29:27;2.60;;;2.40;;
9445;SDS011;4761;49.490;10.908;2022-07-30T03:31:54;2.58;;;2.15;;
9445;SDS011;4761;49.490;10.908;2022-07-30T03:34:20;2.53;;;2.25;;
9445;SDS011;4761;49.490;10.908;2022-07-30T03:36:47;2.75;;;2.55;;
9445;SDS011;4761;49.490;10.908;2022-07-30T03:39:14;2.88;;;2.35;;
9445;SDS011;4761;49.490;10.908;2022-07-30T03:41:41;3.05;;;2.40;;
9445;SDS011;4761;49.490;10.908;2022-07-30T03:44:07;2.55;;;2.35;;
9445;SDS011;4761;49.490;10.908;2022-07-30T03:46:34;2.40;;;2.20;;
9445;SDS011;4761;49.490;10.908;2022-07-30T03:49:01;2.60;;;2.40;;
9445;SDS011;4761;49.490;10.908;2022-07-30T03:51:27;2.45;;;2.25;;
9445;SDS011;4761;49.490;10.908;2022-07-30T03:53:53;2.28;;;2.13;;
9445;SDS011;4761;49.490;10.908;2022-07-30T03:56:18;2.85;;;2.65;;
9445;SDS011;4761;49.490;10.908;2022-07-30T03:58:44;2.50;;;2.30;;
9445;SDS011;4761;49.490;10.908;2022-07-30T04:01:10;4.82;;;2.50;;
9445;SDS011;4761;49.490;10.908;2022-07-30T04:03:36;2.50;;;2.30;;
9445;SDS011;4761;49.490;10.908;2022-07-30T04:06:01;3.15;;;2.30;;
9445;SDS011;4761;49.490;10.908;2022-07-30T04:08:27;2.65;;;2.45;;
9445;SDS011;4761;49.490;10.908;2022-07-30T04:10:53;2.50;;;2.30;;
9445;SDS011;4761;49.490;10.908;2022-07-30T04:13:18;3.13;;;2.83;;
9445;SDS011;4761;49.490;10.908;2022-07-30T04:16:08;2.83;;;2.50;;
9445;SDS011;4761;49.490;10.908;2022-07-30T04:18:35;2.85;;;2.65;;
9445;SDS011;4761;49.490;10.908;2022-07-30T04:21:04;2.90;;;2.70;;
9445;SDS011;4761;49.490;10.908;2022-07-30T04:23:32;2.85;;;2.63;;
9445;SDS011;4761;49.490;10.908;2022-07-30T04:25:58;2.45;;;2.25;;
9445;SDS011;4761;49.490;10.908;2022-07-30T04:28:25;2.88;;;2.65;;
9445;SDS011;4761;49.490;10.908;2022-07-30T04:30:52;2.70;;;2.50;;
9445;SDS011;4761;49.490;10.908;2022-07-30T04:33:18;3.80;;;3.00;;
9445;SDS011;4761;49.490;10.908;2022-07-30T04:35:44;3.22;;;2.92;;
9445;SDS011;4761;49.490;10.908;2022-07-30T04:38:09;3.13;;;2.83;;
9445;SDS011;4761;49.490;10.908;2022-07-30T04:40:36;3.05;;;2.75;;
9445;SDS011;4761;49.490;10.908;2022-07-30T04:43:02;3.45;;;3.15;;
9445;SDS011;4761;49.490;10.908;2022-07-30T04:45:27;4.03;;;3.38;;
9445;SDS011;4761;49.490;10.908;2022-07-30T04:47:53;3.97;;;3.20;;
9445;SDS011;4761;49.490;10.908;2022-07-30T04:50:20;3.10;;;2.80;;
9445;SDS011;4761;49.490;10.908;2022-07-30T04:52:48;4.18;;;3.30;;
9445;SDS011;4761;49.490;10.908;2022-07-30T04:55:16;4.03;;;3.63;;
9445;SDS011;4761;49.490;10.908;2022-07-30T04:57:43;3.67;;;3.33;;
9445;SDS011;4761;49.490;10.908;2022-07-30T05:00:12;3.95;;;3.45;;
9445;SDS011;4761;49.490;10.908;2022-07-30T05:02:37;4.03;;;3.55;;
9445;SDS011;4761;49.490;10.908;2022-07-30T05:05:05;4.32;;;3.42;;
9445;SDS011;4761;49.490;10.908;2022-07-30T05:07:32;4.32;;;3.92;;
9445;SDS011;4761;49.490;10.908;2022-07-30T05:09:58;4.70;;;3.40;;
9445;SDS011;4761;49.490;10.908;2022-07-30T05:12:36;4.45;;;4.05;;
9445;SDS011;4761;49.490;10.908;2022-07-30T05:15:05;4.57;;;3.40;;
9445;SDS011;4761;49.490;10.908;2022-07-30T05:17:33;5.25;;;3.65;;
9445;SDS011;4761;49.490;10.908;2022-07-30T05:19:59;4.47;;;4.07;;
9445;SDS011;4761;49.490;10.908;2022-07-30T05:22:24;5.18;;;3.90;;
9445;SDS011;4761;49.490;10.908;2022-07-30T05:24:53;4.60;;;3.75;;
9445;SDS011;4761;49.490;10.908;2022-07-30T05:27:19;3.63;;;3.30;;
9445;SDS011;4761;49.490;10.908;2022-07-30T05:29:45;3.90;;;3.42;;
9445;SDS011;4761;49.490;10.908;2022-07-30T05:32:11;4.15;;;3.70;;
9445;SDS011;4761;49.490;10.908;2022-07-30T05:34:36;4.10;;;3.33;;
9445;SDS011;4761;49.490;10.908;2022-07-30T05:37:02;3.28;;;2.97;;
9445;SDS011;4761;49.490;10.908;2022-07-30T05:39:28;3.80;;;3.30;;
9445;SDS011;4761;49.490;10.908;2022-07-30T05:41:53;3.42;;;2.75;;
9445;SDS011;4761;49.490;10.908;2022-07-30T05:44:19;3.67;;;3.38;;
9445;SDS011;4761;49.490;10.908;2022-07-30T05:46:45;3.00;;;2.60;;
9445;SDS011;4761;49.490;10.908;2022-07-30T05:49:11;3.08;;;2.83;;
9445;SDS011;4761;49.490;10.908;2022-07-30T05:51:36;3.40;;;3.10;;
9445;SDS011;4761;49.490;10.908;2022-07-30T05:54:02;3.08;;;2.78;;
9445;SDS011;4761;49.490;10.908;2022-07-30T05:56:28;3.20;;;2.90;;
9445;SDS011;4761;49.490;10.908;2022-07-30T05:58:53;3.53;;;3.13;;
9445;SDS011;4761;49.490;10.908;2022-07-30T06:01:19;2.83;;;2.60;;
9445;SDS011;4761;49.490;10.908;2022-07-30T06:03:44;2.92;;;2.72;;
9445;SDS011;4761;49.490;10.908;2022-07-30T06:06:10;3.17;;;2.80;;
9445;SDS011;4761;49.490;10.908;2022-07-30T06:08:35;3.03;;;2.70;;
9445;SDS011;4761;49.490;10.908;2022-07-30T06:11:01;3.55;;;2.80;;
9445;SDS011;4761;49.490;10.908;2022-07-30T06:13:27;3.22;;;2.72;;
9445;SDS011;4761;49.490;10.908;2022-07-30T06:15:52;3.33;;;2.70;;
9445;SDS011;4761;49.490;10.908;2022-07-30T06:18:18;2.60;;;2.35;;
9445;SDS011;4761;49.490;10.908;2022-07-30T06:20:44;2.85;;;2.60;;
9445;SDS011;4761;49.490;10.908;2022-07-30T06:23:10;3.35;;;2.70;;
9445;SDS011;4761;49.490;10.908;2022-07-30T06:25:36;2.58;;;2.38;;
9445;SDS011;4761;49.490;10.908;2022-07-30T06:28:01;2.70;;;2.50;;
9445;SDS011;4761;49.490;10.908;2022-07-30T06:30:27;2.75;;;2.40;;
9445;SDS011;4761;49.490;10.908;2022-07-30T06:32:53;2.40;;;2.20;;
9445;SDS011;4761;49.490;10.908;2022-07-30T06:35:19;3.05;;;2.67;;
9445;SDS011;4761;49.490;10.908;2022-07-30T06:37:45;3.50;;;2.67;;
9445;SDS011;4761;49.490;10.908;2022-07-30T06:40:10;3.25;;;2.53;;
9445;SDS011;4761;49.490;10.908;2022-07-30T06:42:36;2.95;;;2.65;;
9445;SDS011;4761;49.490;10.908;2022-07-30T06:45:02;3.20;;;2.83;;
9445;SDS011;4761;49.490;10.908;2022-07-30T06:47:28;2.60;;;2.40;;
9445;SDS011;4761;49.490;10.908;2022-07-30T06:49:55;2.83;;;2.58;;
9445;SDS011;4761;49.490;10.908;2022-07-30T06:52:21;2.67;;;2.47;;
9445;SDS011;4761;49.490;10.908;2022-07-30T06:54:46;2.60;;;2.40;;
9445;SDS011;4761;49.490;10.908;2022-07-30T06:57:12;2.53;;;2.30;;
9445;SDS011;4761;49.490;10.908;2022-07-30T06:59:38;2.38;;;2.17;;
9445;SDS011;4761;49.490;10.908;2022-07-30T07:02:04;3.25;;;2.70;;
9445;SDS011;4761;49.490;10.908;2022-07-30T07:04:29;2.70;;;2.47;;
9445;SDS011;4761;49.490;10.908;2022-07-30T07:06:56;2.33;;;2.13;;
9445;SDS011;4761;49.490;10.908;2022-07-30T07:09:22;2.47;;;2.28;;
9445;SDS011;4761;49.490;10.908;2022-07-30T07:11:48;4.07;;;2.22;;
9445;SDS011;4761;49.490;10.908;2022-07-30T07:14:13;2.30;;;2.10;;
9445;SDS011;4761;49.490;10.908;2022-07-30T07:16:39;2.50;;;2.25;;
9445;SDS011;4761;49.490;10.908;2022-07-30T07:19:04;3.25;;;2.78;;
9445;SDS011;4761;49.490;10.908;2022-07-30T07:21:30;2.00;;;1.90;;
9445;SDS011;4761;49.490;10.908;2022-07-30T07:23:56;2.58;;;2.38;;
9445;SDS011;4761;49.490;10.908;2022-07-30T07:26:24;2.30;;;2.10;;
9445;SDS011;4761;49.490;10.908;2022-07-30T07:28:50;2.50;;;2.25;;
9445;SDS011;4761;49.490;10.908;2022-07-30T07:31:15;3.15;;;1.90;;
9445;SDS011;4761;49.490;10.908;2022-07-30T07:33:41;2.75;;;2.20;;
9445;SDS011;4761;49.490;10.908;2022-07-30T07:36:07;2.38;;;2.17;;
9445;SDS011;4761;49.490;10.908;2022-07-30T07:38:33;1.90;;;1.80;;
9445;SDS011;4761;49.490;10.908;2022-07-30T07:40:58;3.72;;;2.50;;
9445;SDS011;4761;49.490;10.908;2022-07-30T07:43:24;2.20;;;1.98;;
9445;SDS011;4761;49.490;10.908;2022-07-30T07:45:50;2.13;;;1.90;;
9445;SDS011;4761;49.490;10.908;2022-07-30T07:48:16;2.30;;;1.95;;
9445;SDS011;4761;49.490;10.908;2022-07-30T07:50:42;2.78;;;2.22;;
9445;SDS011;4761;49.490;10.908;2022-07-30T07:53:08;2.30;;;2.03;;
9445;SDS011;4761;49.490;10.908;2022-07-30T07:55:33;2.20;;;2.00;;
9445;SDS011;4761;49.490;10.908;2022-07-30T07:57:59;2.20;;;2.00;;
9445;SDS011;4761;49.490;10.908;2022-07-30T08:00:24;2.58;;;1.95;;
9445;SDS011;4761;49.490;10.908;2022-07-30T08:02:50;2.22;;;2.00;;
9445;SDS011;4761;49.490;10.908;2022-07-30T08:05:15;1.80;;;1.70;;
9445;SDS011;4761;49.490;10.908;2022-07-30T08:07:41;2.20;;;2.00;;
9445;SDS011;4761;49.490;10.908;2022-07-30T08:10:08;2.35;;;2.15;;
9445;SDS011;4761;49.490;10.908;2022-07-30T08:12:35;2.30;;;2.10;;
9445;SDS011;4761;49.490;10.908;2022-07-30T08:15:01;2.08;;;1.92;;
9445;SDS011;4761;49.490;10.908;2022-07-30T08:17:27;1.95;;;1.85;;
9445;SDS011;4761;49.490;10.908;2022-07-30T08:19:56;2.47;;;2.10;;
9445;SDS011;4761;49.490;10.908;2022-07-30T08:22:23;2.20;;;2.00;;
9445;SDS011;4761;49.490;10.908;2022-07-30T08:24:49;2.05;;;1.90;;
9445;SDS011;4761;49.490;10.908;2022-07-30T08:27:14;5.10;;;1.95;;
9445;SDS011;4761;49.490;10.908;2022-07-30T08:29:41;1.98;;;1.80;;
9445;SDS011;4761;49.490;10.908;2022-07-30T08:32:06;2.60;;;2.40;;
9445;SDS011;4761;49.490;10.908;2022-07-30T08:34:32;2.22;;;2.00;;
9445;SDS011;4761;49.490;10.908;2022-07-30T08:36:58;2.25;;;2.00;;
9445;SDS011;4761;49.490;10.908;2022-07-30T08:39:23;3.20;;;2.10;;
9445;SDS011;4761;49.490;10.908;2022-07-30T08:41:49;2.10;;;1.90;;
9445;SDS011;4761;49.490;10.908;2022-07-30T08:44:15;2.10;;;1.90;;
9445;SDS011;4761;49.490;10.908;2022-07-30T08:46:42;1.90;;;1.80;;
9445;SDS011;4761;49.490;10.908;2022-07-30T08:49:10;1.80;;;1.70;;
9445;SDS011;4761;49.490;10.908;2022-07-30T08:51:36;1.98;;;1.88;;
9445;SDS011;4761;49.490;10.908;2022-07-30T08:54:03;2.20;;;2.00;;
9445;SDS011;4761;49.490;10.908;2022-07-30T08:56:30;2.13;;;1.92;;
9445;SDS011;4761;49.490;10.908;2022-07-30T08:58:56;2.72;;;2.15;;
9445;SDS011;4761;49.490;10.908;2022-07-30T09:01:24;2.20;;;1.90;;
9445;SDS011;4761;49.490;10.908;2022-07-30T09:03:49;2.40;;;1.70;;
9445;SDS011;4761;49.490;10.908;2022-07-30T09:06:15;1.80;;;1.70;;
9445;SDS011;4761;49.490;10.908;2022-07-30T09:08:41;1.88;;;1.77;;
9445;SDS011;4761;49.490;10.908;2022-07-30T09:11:06;2.00;;;1.80;;
9445;SDS011;4761;49.490;10.908;2022-07-30T09:13:34;1.80;;;1.70;;
9445;SDS011;4761;49.490;10.908;2022-07-30T09:16:05;1.60;;;1.50;;
9445;SDS011;4761;49.490;10.908;2022-07-30T09:20:59;1.85;;;1.55;;
9445;SDS011;4761;49.490;10.908;2022-07-30T09:23:26;1.90;;;1.70;;
9445;SDS011;4761;49.490;10.908;2022-07-30T09:25:51;2.03;;;1.60;;
9445;SDS011;4761;49.490;10.908;2022-07-30T09:28:26;2.17;;;1.83;;
9445;SDS011;4761;49.490;10.908;2022-07-30T09:30:54;4.32;;;2.00;;
9445;SDS011;4761;49.490;10.908;2022-07-30T09:33:36;2.80;;;1.70;;
9445;SDS011;4761;49.490;10.908;2022-07-30T09:36:04;1.70;;;1.60;;
9445;SDS011;4761;49.490;10.908;2022-07-30T09:41:20;3.72;;;1.95;;
9445;SDS011;4761;49.490;10.908;2022-07-30T09:43:57;3.85;;;1.75;;
9445;SDS011;4761;49.490;10.908;2022-07-30T09:46:39;1.95;;;1.48;;
9445;SDS011;4761;49.490;10.908;2022-07-30T09:49:14;1.40;;;1.30;;
9445;SDS011;4761;49.490;10.908;2022-07-30T09:51:41;1.70;;;1.60;;
9445;SDS011;4761;49.490;10.908;2022-07-30T09:54:06;2.65;;;1.80;;
9445;SDS011;4761;49.490;10.908;2022-07-30T09:56:32;2.05;;;1.70;;
9445;SDS011;4761;49.490;10.908;2022-07-30T09:58:57;1.90;;;1.65;;
9445;SDS011;4761;49.490;10.908;2022-07-30T10:01:23;2.00;;;1.80;;
9445;SDS011;4761;49.490;10.908;2022-07-30T10:03:48;1.75;;;1.65;;
9445;SDS011;4761;49.490;10.908;2022-07-30T10:06:14;2.03;;;1.60;;
9445;SDS011;4761;49.490;10.908;2022-07-30T10:08:41;2.10;;;1.70;;
9445;SDS011;4761;49.490;10.908;2022-07-30T10:11:20;1.50;;;1.40;;
9445;SDS011;4761;49.490;10.908;2022-07-30T10:13:47;1.83;;;1.60;;
9445;SDS011;4761;49.490;10.908;2022-07-30T10:16:15;2.35;;;1.90;;
9445;SDS011;4761;49.490;10.908;2022-07-30T10:18:41;2.42;;;1.70;;
9445;SDS011;4761;49.490;10.908;2022-07-30T10:21:07;2.10;;;1.80;;
9445;SDS011;4761;49.490;10.908;2022-07-30T10:23:33;1.50;;;1.40;;
9445;SDS011;4761;49.490;10.908;2022-07-30T10:25:59;1.83;;;1.60;;
9445;SDS011;4761;49.490;10.908;2022-07-30T10:28:26;1.63;;;1.52;;
9445;SDS011;4761;49.490;10.908;2022-07-30T10:30:53;1.85;;;1.50;;
9445;SDS011;4761;49.490;10.908;2022-07-30T10:33:20;1.63;;;1.52;;
9445;SDS011;4761;49.490;10.908;2022-07-30T10:35:47;1.45;;;1.20;;
9445;SDS011;4761;49.490;10.908;2022-07-30T10:38:13;1.85;;;1.67;;
9445;SDS011;4761;49.490;10.908;2022-07-30T10:40:45;2.97;;;1.77;;
9445;SDS011;4761;49.490;10.908;2022-07-30T10:48:27;1.70;;;1.60;;
9445;SDS011;4761;49.490;10.908;2022-07-30T10:50:57;1.50;;;1.40;;
9445;SDS011;4761;49.490;10.908;2022-07-30T10:53:37;2.08;;;1.40;;
9445;SDS011;4761;49.490;10.908;2022-07-30T11:06:43;1.40;;;1.30;;
9445;SDS011;4761;49.490;10.908;2022-07-30T11:12:07;1.45;;;1.25;;
9445;SDS011;4761;49.490;10.908;2022-07-30T11:17:20;1.50;;;1.40;;
9445;SDS011;4761;49.490;10.908;2022-07-30T11:22:28;1.65;;;1.50;;
9445;SDS011;4761;49.490;10.908;2022-07-30T11:24:56;2.00;;;1.58;;
9445;SDS011;4761;49.490;10.908;2022-07-30T11:30:05;1.40;;;1.30;;
9445;SDS011;4761;49.490;10.908;2022-07-30T11:32:46;1.52;;;1.42;;
9445;SDS011;4761;49.490;10.908;2022-07-30T11:46:09;1.30;;;1.20;;
9445;SDS011;4761;49.490;10.908;2022-07-30T11:48:53;1.40;;;1.30;;
9445;SDS011;4761;49.490;10.908;2022-07-30T11:51:20;1.40;;;1.30;;
9445;SDS011;4761;49.490;10.908;2022-07-30T11:53:59;1.60;;;1.40;;
9445;SDS011;4761;49.490;10.908;2022-07-30T11:56:25;1.40;;;1.30;;
9445;SDS011;4761;49.490;10.908;2022-07-30T11:58:51;1.67;;;1.58;;
9445;SDS011;4761;49.490;10.908;2022-07-30T12:01:31;1.52;;;1.42;;
9445;SDS011;4761;49.490;10.908;2022-07-30T12:04:01;2.15;;;1.30;;
9445;SDS011;4761;49.490;10.908;2022-07-30T12:06:30;1.42;;;1.33;;
9445;SDS011;4761;49.490;10.908;2022-07-30T12:08:56;1.52;;;1.30;;
9445;SDS011;4761;49.490;10.908;2022-07-30T12:11:23;1.27;;;1.17;;
9445;SDS011;4761;49.490;10.908;2022-07-30T12:13:55;1.38;;;1.27;;
9445;SDS011;4761;49.490;10.908;2022-07-30T12:16:23;1.38;;;1.27;;
9445;SDS011;4761;49.490;10.908;2022-07-30T12:18:50;1.58;;;1.35;;
9445;SDS011;4761;49.490;10.908;2022-07-30T12:21:15;1.40;;;1.30;;
9445;SDS011;4761;49.490;10.908;2022-07-30T12:23:42;1.55;;;1.40;;
9445;SDS011;4761;49.490;10.908;2022-07-30T12:26:19;1.38;;;1.27;;
9445;SDS011;4761;49.490;10.908;2022-07-30T12:28:46;1.30;;;1.20;;
9445;SDS011;4761;49.490;10.908;2022-07-30T12:31:13;1.67;;;1.45;;
9445;SDS011;4761;49.490;10.908;2022-07-30T12:33:40;1.70;;;1.40;;
9445;SDS011;4761;49.490;10.908;2022-07-30T12:36:06;1.45;;;1.30;;
9445;SDS011;4761;49.490;10.908;2022-07-30T12:38:41;1.42;;;1.33;;
9445;SDS011;4761;49.490;10.908;2022-07-30T12:41:14;1.55;;;1.35;;
9445;SDS011;4761;49.490;10.908;2022-07-30T12:46:12;1.30;;;1.20;;
9445;SDS011;4761;49.490;10.908;2022-07-30T12:48:53;1.35;;;1.25;;
9445;SDS011;4761;49.490;10.908;2022-07-30T12:51:19;1.42;;;1.33;;
9445;SDS011;4761;49.490;10.908;2022-07-30T12:53:46;1.55;;;1.30;;
9445;SDS011;4761;49.490;10.908;2022-07-30T12:56:13;1.50;;;1.40;;
9445;SDS011;4761;49.490;10.908;2022-07-30T12:58:40;1.30;;;1.20;;
9445;SDS011;4761;49.490;10.908;2022-07-30T13:01:07;1.40;;;1.30;;
9445;SDS011;4761;49.490;10.908;2022-07-30T13:03:33;1.38;;;1.10;;
9445;SDS011;4761;49.490;10.908;2022-07-30T13:06:26;1.42;;;1.33;;
9445;SDS011;4761;49.490;10.908;2022-07-30T13:11:17;1.30;;;1.20;;
9445;SDS011;4761;49.490;10.908;2022-07-30T13:13:43;1.48;;;1.30;;
9445;SDS011;4761;49.490;10.908;2022-07-30T13:16:10;1.25;;;1.15;;
9445;SDS011;4761;49.490;10.908;2022-07-30T13:18:35;1.40;;;1.30;;
9445;SDS011;4761;49.490;10.908;2022-07-30T13:21:02;1.20;;;1.10;;
9445;SDS011;4761;49.490;10.908;2022-07-30T13:23:29;1.40;;;1.30;;
9445;SDS011;4761;49.490;10.908;2022-07-30T13:25:55;1.42;;;1.33;;
9445;SDS011;4761;49.490;10.908;2022-07-30T13:28:22;1.63;;;1.52;;
9445;SDS011;4761;49.490;10.908;2022-07-30T13:30:48;1.27;;;1.17;;
9445;SDS011;4761;49.490;10.908;2022-07-30T13:33:13;1.30;;;1.20;;
9445;SDS011;4761;49.490;10.908;2022-07-30T13:35:39;1.42;;;1.33;;
9445;SDS011;4761;49.490;10.908;2022-07-30T13:38:05;1.48;;;1.38;;
9445;SDS011;4761;49.490;10.908;2022-07-30T13:40:31;1.45;;;1.35;;
9445;SDS011;4761;49.490;10.908;2022-07-30T13:42:57;1.50;;;1.40;;
9445;SDS011;4761;49.490;10.908;2022-07-30T13:45:23;1.40;;;1.30;;
9445;SDS011;4761;49.490;10.908;2022-07-30T13:47:49;1.35;;;1.20;;
9445;SDS011;4761;49.490;10.908;2022-07-30T13:50:14;1.40;;;1.30;;
9445;SDS011;4761;49.490;10.908;2022-07-30T13:52:40;1.50;;;1.30;;
9445;SDS011;4761;49.490;10.908;2022-07-30T13:55:05;1.50;;;1.40;;
9445;SDS011;4761;49.490;10.908;2022-07-30T13:57:31;1.50;;;1.40;;
9445;SDS011;4761;49.490;10.908;2022-07-30T13:59:57;1.30;;;1.20;;
9445;SDS011;4761;49.490;10.908;2022-07-30T14:02:22;1.00;;;1.00;;
9445;SDS011;4761;49.490;10.908;2022-07-30T14:04:48;1.50;;;1.40;;
9445;SDS011;4761;49.490;10.908;2022-07-30T14:07:13;1.30;;;1.20;;
9445;SDS011;4761;49.490;10.908;2022-07-30T14:09:39;1.40;;;1.30;;
9445;SDS011;4761;49.490;10.908;2022-07-30T14:12:04;1.38;;;1.27;;
9445;SDS011;4761;49.490;10.908;2022-07-30T14:14:30;1.38;;;1.20;;
9445;SDS011;4761;49.490;10.908;2022-07-30T14:16:56;1.40;;;1.30;;
9445;SDS011;4761;49.490;10.908;2022-07-30T14:19:21;1.35;;;1.25;;
9445;SDS011;4761;49.490;10.908;2022-07-30T14:21:47;1.38;;;1.27;;
9445;SDS011;4761;49.490;10.908;2022-07-30T14:24:13;1.50;;;1.40;;
9445;SDS011;4761;49.490;10.908;2022-07-30T14:26:40;1.30;;;1.20;;
9445;SDS011;4761;49.490;10.908;2022-07-30T14:29:07;1.20;;;1.20;;
9445;SDS011;4761;49.490;10.908;2022-07-30T14:31:33;1.30;;;1.20;;
9445;SDS011;4761;49.490;10.908;2022-07-30T14:33:59;1.45;;;1.35;;
9445;SDS011;4761;49.490;10.908;2022-07-30T14:36:25;1.30;;;1.20;;
9445;SDS011;4761;49.490;10.908;2022-07-30T14:38:54;1.50;;;1.40;;
9445;SDS011;4761;49.490;10.908;2022-07-30T14:41:23;1.52;;;1.20;;
9445;SDS011;4761;49.490;10.908;2022-07-30T14:43:50;1.02;;;1.02;;
9445;SDS011;4761;49.490;10.908;2022-07-30T14:46:16;1.30;;;1.20;;
9445;SDS011;4761;49.490;10.908;2022-07-30T14:48:41;1.30;;;1.20;;
9445;SDS011;4761;49.490;10.908;2022-07-30T14:51:07;1.60;;;1.40;;
9445;SDS011;4761;49.490;10.908;2022-07-30T14:53:33;1.33;;;1.25;;
9445;SDS011;4761;49.490;10.908;2022-07-30T14:55:59;1.63;;;1.52;;
9445;SDS011;4761;49.490;10.908;2022-07-30T14:58:24;1.42;;;1.33;;
9445;SDS011;4761;49.490;10.908;2022-07-30T15:00:50;1.50;;;1.30;;
9445;SDS011;4761;49.490;10.908;2022-07-30T15:03:16;1.50;;;1.40;;
9445;SDS011;4761;49.490;10.908;2022-07-30T15:05:42;1.50;;;1.40;;
9445;SDS011;4761;49.490;10.908;2022-07-30T15:08:07;1.30;;;1.20;;
9445;SDS011;4761;49.490;10.908;2022-07-30T15:10:33;1.73;;;1.35;;
9445;SDS011;4761;49.490;10.908;2022-07-30T15:12:59;1.50;;;1.40;;
9445;SDS011;4761;49.490;10.908;2022-07-30T15:15:24;1.48;;;1.38;;
9445;SDS011;4761;49.490;10.908;2022-07-30T15:17:50;1.60;;;1.50;;
9445;SDS011;4761;49.490;10.908;2022-07-30T15:20:15;2.13;;;1.50;;
9445;SDS011;4761;49.490;10.908;2022-07-30T15:22:41;1.33;;;1.23;;
9445;SDS011;4761;49.490;10.908;2022-07-30T15:25:06;1.50;;;1.40;;
9445;SDS011;4761;49.490;10.908;2022-07-30T15:27:32;1.52;;;1.42;;
9445;SDS011;4761;49.490;10.908;2022-07-30T15:29:58;1.67;;;1.50;;
9445;SDS011;4761;49.490;10.908;2022-07-30T15:32:24;1.05;;;1.02;;
9445;SDS011;4761;49.490;10.908;2022-07-30T15:34:49;1.50;;;1.40;;
9445;SDS011;4761;49.490;10.908;2022-07-30T15:37:15;1.77;;;1.40;;
9445;SDS011;4761;49.490;10.908;2022-07-30T15:39:41;1.50;;;1.27;;
9445;SDS011;4761;49.490;10.908;2022-07-30T15:42:06;1.50;;;1.40;;
9445;SDS011;4761;49.490;10.908;2022-07-30T15:44:32;1.20;;;1.10;;
9445;SDS011;4761;49.490;10.908;2022-07-30T15:46:58;1.50;;;1.40;;
9445;SDS011;4761;49.490;10.908;2022-07-30T15:49:24;2.00;;;1.48;;
9445;SDS011;4761;49.490;10.908;2022-07-30T15:51:50;1.40;;;1.30;;
9445;SDS011;4761;49.490;10.908;2022-07-30T15:54:16;1.48;;;1.30;;